Hanjin Ottawa — DANM — position and weather

sailwx.info

Track history (hours):
 
Tides and Currents Weather Stations Pressure Air Temp Water Temp Dewpoint Dewpoint Depression Visibility Wind Speed Wind Dir Waves Ship Positions

Hanjin Ottawa

Last reported at 2014-Aug-11 03:11 UTC. Time now 2014-Aug-21 12:10 UTC.
Position N 49°13' W 127°21'.
Warning: this ship's position is 10 days out of date.

Length 278.8 m; beam 40.3 m; draft 14 m.

Type: Ship. MMSI: 211378360.

Date/timePositionNaut miles runAvg speedWind from/ knotsBaromVisibWave heightAir tempDewpointWater temp
2014-Aug-11 03:11N 49°13' W 127°21'1115.8
2014-Aug-11 02:31N 49°08' W 127°06'1515.4
2014-Aug-11 01:34N 49°02' W 126°46'1515.3
2014-Aug-11 00:33N 48°55' W 126°25'1615.7
2014-Aug-10 23:34N 48°48' W 126°03'1615.7
2014-Aug-10 22:33N 48°42' W 125°42'1616.0
2014-Aug-10 21:34N 48°35' W 125°20'1615.7
2014-Aug-10 20:33N 48°31' W 124°57'4116.7
2014-Aug-10 18:05N 48°18' W 123°58'1018.8
2014-Aug-10 17:32N 48°16' W 123°42'1414.9
2014-Aug-10 16:33N 48°23' W 123°23'1514.6
2014-Aug-10 15:34N 48°36' W 123°14'1717.0
2014-Aug-10 14:34N 48°53' W 123°06'2020.2
2014-Aug-10 13:33N 49°10' W 123°23'1413.6
2014-Aug-10 12:33N 49°18' W 123°06'1 0.9
2014-Aug-10 11:33N 49°17' W 123°05'0 0.0
2014-Aug-10 10:33N 49°17' W 123°05'0 0.0
2014-Aug-10 09:32N 49°17' W 123°05'0 0.0
2014-Aug-10 08:31N 49°17' W 123°05'0 0.0
2014-Aug-10 07:31N 49°17' W 123°05'0 0.0
2014-Aug-10 06:31N 49°17' W 123°05'0 0.0
2014-Aug-10 05:33N 49°17' W 123°05'0 0.0
2014-Aug-10 04:33N 49°17' W 123°05'0 0.0
2014-Aug-10 03:32N 49°17' W 123°05'0 0.0
2014-Aug-10 02:32N 49°17' W 123°05'0 0.0
2014-Aug-10 01:33N 49°17' W 123°05'0 0.0
2014-Aug-10 00:33N 49°17' W 123°05'0 0.0
2014-Aug-09 23:33N 49°17' W 123°05'0 0.0
2014-Aug-09 22:29N 49°17' W 123°05'0 0.0
2014-Aug-09 21:32N 49°17' W 123°05'0 0.0
2014-Aug-09 20:31N 49°17' W 123°05'0 0.0
2014-Aug-09 19:31N 49°17' W 123°05'0 0.0
2014-Aug-09 18:33N 49°17' W 123°05'0 0.0
2014-Aug-09 17:33N 49°17' W 123°05'0 0.0
2014-Aug-09 16:33N 49°17' W 123°05'0 0.0
2014-Aug-09 15:32N 49°17' W 123°05'0 0.0
2014-Aug-09 14:32N 49°17' W 123°05'0 0.0
2014-Aug-09 13:31N 49°17' W 123°05'0 0.0
2014-Aug-09 12:31N 49°17' W 123°05'0 0.0
2014-Aug-09 11:33N 49°17' W 123°05'0 0.0
2014-Aug-09 10:33N 49°17' W 123°05'0 0.0
2014-Aug-09 09:32N 49°17' W 123°05'0 0.0
2014-Aug-09 08:29N 49°17' W 123°05'0 0.0
2014-Aug-09 07:32N 49°17' W 123°05'1 1.1
2014-Aug-09 06:33N 49°18' W 123°06'9 9.1
2014-Aug-09 05:34N 49°14' W 123°19'1818.3
2014-Aug-09 04:33N 48°57' W 123°09'1414.1
2014-Aug-09 03:33N 48°43' W 123°11'1817.6
2014-Aug-09 02:33N 48°25' W 123°10'1211.9
2014-Aug-09 01:33N 48°18' W 123°25'10 9.0
2014-Aug-09 00:28N 48°13' W 123°37'9 9.1
2014-Aug-08 23:26N 48°13' W 123°51'1213.3
2014-Aug-08 22:33N 48°17' W 124°08'1818.0
2014-Aug-08 21:33N 48°25' W 124°32'1918.9
2014-Aug-08 20:33N 48°27' W 125°00'2017.8
2014-Aug-08 19:25N 48°08' W 125°09'3215.9
2014-Aug-08 17:26N 47°36' W 125°14'6816.4
2014-Aug-08 13:18N 46°35' W 124°31'1216.4
2014-Aug-08 12:33N 46°25' W 124°22'1515.1
2014-Aug-08 11:33N 46°13' W 124°09'1211.6
2014-Aug-08 10:34N 46°11' W 123°52'1111.2
2014-Aug-08 09:33N 46°16' W 123°37'10 9.7
2014-Aug-08 08:33N 46°10' W 123°25'43 4.1
2014-Aug-07 22:05N 45°38' W 122°45'0 0.0
2014-Aug-07 21:32N 45°38' W 122°45'0 0.0
2014-Aug-07 19:04N 45°38' W 122°45'0 0.0
2014-Aug-07 14:26N 45°38' W 122°45'0 0.0
2014-Aug-07 11:31N 45°38' W 122°45'0 0.0
2014-Aug-07 08:23N 45°38' W 122°45'0 0.0
2014-Aug-07 07:26N 45°38' W 122°45'0 0.0
2014-Aug-07 04:03N 45°38' W 122°45'0 0.0
2014-Aug-07 03:03N 45°38' W 122°45'0 0.0
2014-Aug-07 02:24N 45°38' W 122°45'0 0.0
2014-Aug-06 21:18N 45°38' W 122°45'0 0.0
2014-Aug-06 20:24N 45°38' W 122°45'0 0.0
2014-Aug-06 19:30N 45°38' W 122°45'0 0.0
2014-Aug-06 17:17N 45°38' W 122°45'0 0.0
2014-Aug-06 16:22N 45°38' W 122°45'0 0.0
2014-Aug-06 15:28N 45°38' W 122°45'0 0.0
2014-Aug-06 14:21N 45°38' W 122°45'0 0.0
2014-Aug-06 13:15N 45°38' W 122°45'0 0.0
2014-Aug-06 12:27N 45°38' W 122°45'0 0.0
2014-Aug-06 11:32N 45°38' W 122°45'0 0.0
2014-Aug-06 10:26N 45°38' W 122°45'0 0.0
2014-Aug-06 09:31N 45°38' W 122°45'0 0.0
2014-Aug-06 08:31N 45°38' W 122°45'0 0.0
2014-Aug-06 07:31N 45°38' W 122°45'0 0.0
2014-Aug-06 06:06N 45°38' W 122°45'0 0.0
2014-Aug-06 05:24N 45°38' W 122°45'0 0.0
2014-Aug-06 04:29N 45°38' W 122°45'0 0.0
2014-Aug-06 02:16N 45°38' W 122°45'0 0.0
2014-Aug-06 01:16N 45°38' W 122°45'0 0.0
2014-Aug-06 00:14N 45°38' W 122°45'0 0.0
2014-Aug-05 23:27N 45°38' W 122°45'0 0.0
2014-Aug-05 21:14N 45°38' W 122°45'0 0.0
2014-Aug-05 20:26N 45°38' W 122°45'0 0.0
2014-Aug-05 19:31N 45°38' W 122°45'0 0.0
2014-Aug-05 18:19N 45°38' W 122°45'0 0.0
2014-Aug-05 17:12N 45°38' W 122°45'0 0.0
2014-Aug-05 16:12N 45°38' W 122°45'0 0.0
2014-Aug-05 15:23N 45°38' W 122°45'0 0.0
2014-Aug-05 14:29N 45°38' W 122°45'0 0.0
2014-Aug-05 13:23N 45°38' W 122°45'0 0.0
2014-Aug-05 12:16N 45°38' W 122°45'0 0.0
2014-Aug-05 11:25N 45°38' W 122°45'0 0.0
2014-Aug-05 09:12N 45°38' W 122°45'0 0.0
2014-Aug-05 08:29N 45°38' W 122°45'0 0.0
2014-Aug-05 07:29N 45°38' W 122°45'0 0.0
2014-Aug-05 06:29N 45°38' W 122°45'0 0.0
2014-Aug-05 05:28N 45°38' W 122°45'0 0.0
2014-Aug-05 04:04N 45°38' W 122°45'0 0.0
2014-Aug-05 02:33N 45°38' W 122°45'0 0.0
2014-Aug-05 00:26N 45°38' W 122°45'0 0.0
2014-Aug-04 23:11N 45°38' W 122°45'0 0.0
2014-Aug-04 22:31N 45°38' W 122°45'0 0.0
2014-Aug-04 21:28N 45°38' W 122°45'0 0.0
2014-Aug-04 20:33N 45°38' W 122°45'5 5.5
2014-Aug-04 19:33N 45°44' W 122°46'1010.3
2014-Aug-04 18:33N 45°54' W 122°48'1110.5
2014-Aug-04 17:33N 46°04' W 122°53'1110.9
2014-Aug-04 16:34N 46°10' W 123°06'1111.1
2014-Aug-04 15:33N 46°09' W 123°22'10 9.7
2014-Aug-04 14:34N 46°16' W 123°31'1212.1
2014-Aug-04 13:33N 46°13' W 123°47'1010.4
2014-Aug-04 12:34N 46°15' W 124°02'1211.7
2014-Aug-04 11:30N 46°15' W 124°20'1212.6
2014-Aug-04 10:33N 46°26' W 124°28'1514.6
2014-Aug-04 09:33N 46°37' W 124°41'1714.3
2014-Aug-04 08:24N 46°53' W 124°51'1214.1
2014-Aug-04 07:33N 47°03' W 124°58'1413.9
2014-Aug-04 06:31N 47°17' W 125°05'1313.9
2014-Aug-04 05:34N 47°30' W 125°11'1414.0
2014-Aug-04 04:33N 47°43' W 125°17'1413.9
2014-Aug-04 03:34N 47°57' W 125°19'1414.3
2014-Aug-04 02:33N 48°11' W 125°15'1211.5
2014-Aug-04 01:33N 48°22' W 125°09'1212.0
2014-Aug-04 00:33N 48°31' W 124°58'1414.0
2014-Aug-03 23:33N 48°29' W 124°37'1414.1
2014-Aug-03 22:33N 48°23' W 124°17'1413.3
2014-Aug-03 21:30N 48°18' W 123°58'8 7.0
2014-Aug-03 20:23N 48°17' W 123°46'5 6.3
2014-Aug-03 19:32N 48°16' W 123°39'6 6.2
2014-Aug-03 18:33N 48°14' W 123°30'6 5.6
2014-Aug-03 17:33N 48°11' W 123°24'55 9.1
2014-Aug-03 11:32N 47°36' W 122°21'0 0.0
2014-Aug-03 10:29N 47°36' W 122°21'0 0.0
2014-Aug-03 09:32N 47°36' W 122°21'0 0.0
2014-Aug-03 08:31N 47°36' W 122°21'0 0.0
2014-Aug-03 07:28N 47°36' W 122°21'0 0.0
2014-Aug-03 06:33N 47°36' W 122°21'0 0.0
2014-Aug-03 05:30N 47°36' W 122°20'0 0.0
2014-Aug-03 04:32N 47°36' W 122°21'0 0.0
2014-Aug-03 03:32N 47°36' W 122°21'0 0.0
2014-Aug-03 02:29N 47°36' W 122°21'0 0.0
2014-Aug-03 01:33N 47°36' W 122°21'0 0.2
2014-Aug-03 00:33N 47°36' W 122°21'10 9.6
2014-Aug-02 23:33N 47°44' W 122°27'1919.1
2014-Aug-02 22:33N 48°02' W 122°38'1817.7
2014-Aug-02 21:33N 48°12' W 123°00'1616.4
2014-Aug-02 20:33N 48°10' W 123°25'1616.3
2014-Aug-02 19:33N 48°13' W 123°49'1414.4
2014-Aug-02 18:34N 48°18' W 124°09'1515.5
2014-Aug-02 17:34N 48°25' W 124°30'1716.6
2014-Aug-02 16:34N 48°28' W 124°55'1716.7
2014-Aug-02 15:33N 48°34' W 125°19'1514.7
2014-Aug-02 14:33N 48°43' W 125°35'1918.5
2014-Aug-02 13:33N 48°55' W 125°57'1818.6
2014-Aug-02 12:33N 49°07' W 126°19'35618.7
2014-Aug-01 17:33N 54°16' W 131°02'1312.6
2014-Aug-01 16:33N 54°15' W 130°40'1111.3
2014-Aug-01 15:34N 54°15' W 130°21'3 2.6
2014-Aug-01 14:32N 54°17' W 130°22'0 0.0
2014-Aug-01 13:31N 54°17' W 130°22'0 0.0
2014-Aug-01 12:31N 54°17' W 130°22'0 0.0
2014-Aug-01 11:33N 54°17' W 130°22'0 0.0
2014-Aug-01 10:33N 54°17' W 130°22'0 0.0
2014-Aug-01 09:33N 54°17' W 130°22'0 0.0
2014-Aug-01 08:32N 54°17' W 130°22'0 0.0
2014-Aug-01 07:32N 54°17' W 130°22'0 0.0
2014-Aug-01 06:31N 54°17' W 130°22'0 0.0
2014-Aug-01 05:31N 54°17' W 130°22'0 0.0
2014-Aug-01 04:33N 54°17' W 130°22'0 0.0
2014-Aug-01 03:33N 54°17' W 130°22'  
Track history (hours):
 
Tides and Currents Weather Stations Pressure Air Temp Water Temp Dewpoint Dewpoint Depression Visibility Wind Speed Wind Dir Waves Ship Positions

Hanjin Ottawa

Last reported at 2014-Aug-11 03:11 UTC. Time now 2014-Aug-21 12:10 UTC.
Position N 49°13' W 127°21'.
Warning: this ship's position is 10 days out of date.

Length 278.8 m; beam 40.3 m; draft 14 m.

Type: Ship. MMSI: 211378360.

Date/timePositionNaut miles runAvg speedWind from/ knotsBaromVisibWave heightAir tempDewpointWater temp
2014-Aug-11 03:11N 49°13' W 127°21'1115.8
2014-Aug-11 02:31N 49°08' W 127°06'1515.4
2014-Aug-11 01:34N 49°02' W 126°46'1515.3
2014-Aug-11 00:33N 48°55' W 126°25'1615.7
2014-Aug-10 23:34N 48°48' W 126°03'1615.7
2014-Aug-10 22:33N 48°42' W 125°42'1616.0
2014-Aug-10 21:34N 48°35' W 125°20'1615.7
2014-Aug-10 20:33N 48°31' W 124°57'4116.7
2014-Aug-10 18:05N 48°18' W 123°58'1018.8
2014-Aug-10 17:32N 48°16' W 123°42'1414.9
2014-Aug-10 16:33N 48°23' W 123°23'1514.6
2014-Aug-10 15:34N 48°36' W 123°14'1717.0
2014-Aug-10 14:34N 48°53' W 123°06'2020.2
2014-Aug-10 13:33N 49°10' W 123°23'1413.6
2014-Aug-10 12:33N 49°18' W 123°06'1 0.9
2014-Aug-10 11:33N 49°17' W 123°05'0 0.0
2014-Aug-10 10:33N 49°17' W 123°05'0 0.0
2014-Aug-10 09:32N 49°17' W 123°05'0 0.0
2014-Aug-10 08:31N 49°17' W 123°05'0 0.0
2014-Aug-10 07:31N 49°17' W 123°05'0 0.0
2014-Aug-10 06:31N 49°17' W 123°05'0 0.0
2014-Aug-10 05:33N 49°17' W 123°05'0 0.0
2014-Aug-10 04:33N 49°17' W 123°05'0 0.0
2014-Aug-10 03:32N 49°17' W 123°05'0 0.0
2014-Aug-10 02:32N 49°17' W 123°05'0 0.0
2014-Aug-10 01:33N 49°17' W 123°05'0 0.0
2014-Aug-10 00:33N 49°17' W 123°05'0 0.0
2014-Aug-09 23:33N 49°17' W 123°05'0 0.0
2014-Aug-09 22:29N 49°17' W 123°05'0 0.0
2014-Aug-09 21:32N 49°17' W 123°05'0 0.0
2014-Aug-09 20:31N 49°17' W 123°05'0 0.0
2014-Aug-09 19:31N 49°17' W 123°05'0 0.0
2014-Aug-09 18:33N 49°17' W 123°05'0 0.0
2014-Aug-09 17:33N 49°17' W 123°05'0 0.0
2014-Aug-09 16:33N 49°17' W 123°05'0 0.0
2014-Aug-09 15:32N 49°17' W 123°05'0 0.0
2014-Aug-09 14:32N 49°17' W 123°05'0 0.0
2014-Aug-09 13:31N 49°17' W 123°05'0 0.0
2014-Aug-09 12:31N 49°17' W 123°05'0 0.0
2014-Aug-09 11:33N 49°17' W 123°05'0 0.0
2014-Aug-09 10:33N 49°17' W 123°05'0 0.0
2014-Aug-09 09:32N 49°17' W 123°05'0 0.0
2014-Aug-09 08:29N 49°17' W 123°05'0 0.0
2014-Aug-09 07:32N 49°17' W 123°05'1 1.1
2014-Aug-09 06:33N 49°18' W 123°06'9 9.1
2014-Aug-09 05:34N 49°14' W 123°19'1818.3
2014-Aug-09 04:33N 48°57' W 123°09'1414.1
2014-Aug-09 03:33N 48°43' W 123°11'1817.6
2014-Aug-09 02:33N 48°25' W 123°10'1211.9
2014-Aug-09 01:33N 48°18' W 123°25'10 9.0
2014-Aug-09 00:28N 48°13' W 123°37'9 9.1
2014-Aug-08 23:26N 48°13' W 123°51'1213.3
2014-Aug-08 22:33N 48°17' W 124°08'1818.0
2014-Aug-08 21:33N 48°25' W 124°32'1918.9
2014-Aug-08 20:33N 48°27' W 125°00'2017.8
2014-Aug-08 19:25N 48°08' W 125°09'3215.9
2014-Aug-08 17:26N 47°36' W 125°14'6816.4
2014-Aug-08 13:18N 46°35' W 124°31'1216.4
2014-Aug-08 12:33N 46°25' W 124°22'1515.1
2014-Aug-08 11:33N 46°13' W 124°09'1211.6
2014-Aug-08 10:34N 46°11' W 123°52'1111.2
2014-Aug-08 09:33N 46°16' W 123°37'10 9.7
2014-Aug-08 08:33N 46°10' W 123°25'43 4.1
2014-Aug-07 22:05N 45°38' W 122°45'0 0.0
2014-Aug-07 21:32N 45°38' W 122°45'0 0.0
2014-Aug-07 19:04N 45°38' W 122°45'0 0.0
2014-Aug-07 14:26N 45°38' W 122°45'0 0.0
2014-Aug-07 11:31N 45°38' W 122°45'0 0.0
2014-Aug-07 08:23N 45°38' W 122°45'0 0.0
2014-Aug-07 07:26N 45°38' W 122°45'0 0.0
2014-Aug-07 04:03N 45°38' W 122°45'0 0.0
2014-Aug-07 03:03N 45°38' W 122°45'0 0.0
2014-Aug-07 02:24N 45°38' W 122°45'0 0.0
2014-Aug-06 21:18N 45°38' W 122°45'0 0.0
2014-Aug-06 20:24N 45°38' W 122°45'0 0.0
2014-Aug-06 19:30N 45°38' W 122°45'0 0.0
2014-Aug-06 17:17N 45°38' W 122°45'0 0.0
2014-Aug-06 16:22N 45°38' W 122°45'0 0.0
2014-Aug-06 15:28N 45°38' W 122°45'0 0.0
2014-Aug-06 14:21N 45°38' W 122°45'0 0.0
2014-Aug-06 13:15N 45°38' W 122°45'0 0.0
2014-Aug-06 12:27N 45°38' W 122°45'0 0.0
2014-Aug-06 11:32N 45°38' W 122°45'0 0.0
2014-Aug-06 10:26N 45°38' W 122°45'0 0.0
2014-Aug-06 09:31N 45°38' W 122°45'0 0.0
2014-Aug-06 08:31N 45°38' W 122°45'0 0.0
2014-Aug-06 07:31N 45°38' W 122°45'0 0.0
2014-Aug-06 06:06N 45°38' W 122°45'0 0.0
2014-Aug-06 05:24N 45°38' W 122°45'0 0.0
2014-Aug-06 04:29N 45°38' W 122°45'0 0.0
2014-Aug-06 02:16N 45°38' W 122°45'0 0.0
2014-Aug-06 01:16N 45°38' W 122°45'0 0.0
2014-Aug-06 00:14N 45°38' W 122°45'0 0.0
2014-Aug-05 23:27N 45°38' W 122°45'0 0.0
2014-Aug-05 21:14N 45°38' W 122°45'0 0.0
2014-Aug-05 20:26N 45°38' W 122°45'0 0.0
2014-Aug-05 19:31N 45°38' W 122°45'0 0.0
2014-Aug-05 18:19N 45°38' W 122°45'0 0.0
2014-Aug-05 17:12N 45°38' W 122°45'0 0.0
2014-Aug-05 16:12N 45°38' W 122°45'0 0.0
2014-Aug-05 15:23N 45°38' W 122°45'0 0.0
2014-Aug-05 14:29N 45°38' W 122°45'0 0.0
2014-Aug-05 13:23N 45°38' W 122°45'0 0.0
2014-Aug-05 12:16N 45°38' W 122°45'0 0.0
2014-Aug-05 11:25N 45°38' W 122°45'0 0.0
2014-Aug-05 09:12N 45°38' W 122°45'0 0.0
2014-Aug-05 08:29N 45°38' W 122°45'0 0.0
2014-Aug-05 07:29N 45°38' W 122°45'0 0.0
2014-Aug-05 06:29N 45°38' W 122°45'0 0.0
2014-Aug-05 05:28N 45°38' W 122°45'0 0.0
2014-Aug-05 04:04N 45°38' W 122°45'0 0.0
2014-Aug-05 02:33N 45°38' W 122°45'0 0.0
2014-Aug-05 00:26N 45°38' W 122°45'0 0.0
2014-Aug-04 23:11N 45°38' W 122°45'0 0.0
2014-Aug-04 22:31N 45°38' W 122°45'0 0.0
2014-Aug-04 21:28N 45°38' W 122°45'0 0.0
2014-Aug-04 20:33N 45°38' W 122°45'5 5.5
2014-Aug-04 19:33N 45°44' W 122°46'1010.3
2014-Aug-04 18:33N 45°54' W 122°48'1110.5
2014-Aug-04 17:33N 46°04' W 122°53'1110.9
2014-Aug-04 16:34N 46°10' W 123°06'1111.1
2014-Aug-04 15:33N 46°09' W 123°22'10 9.7
2014-Aug-04 14:34N 46°16' W 123°31'1212.1
2014-Aug-04 13:33N 46°13' W 123°47'1010.4
2014-Aug-04 12:34N 46°15' W 124°02'1211.7
2014-Aug-04 11:30N 46°15' W 124°20'1212.6
2014-Aug-04 10:33N 46°26' W 124°28'1514.6
2014-Aug-04 09:33N 46°37' W 124°41'1714.3
2014-Aug-04 08:24N 46°53' W 124°51'1214.1
2014-Aug-04 07:33N 47°03' W 124°58'1413.9
2014-Aug-04 06:31N 47°17' W 125°05'1313.9
2014-Aug-04 05:34N 47°30' W 125°11'1414.0
2014-Aug-04 04:33N 47°43' W 125°17'1413.9
2014-Aug-04 03:34N 47°57' W 125°19'1414.3
2014-Aug-04 02:33N 48°11' W 125°15'1211.5
2014-Aug-04 01:33N 48°22' W 125°09'1212.0
2014-Aug-04 00:33N 48°31' W 124°58'1414.0
2014-Aug-03 23:33N 48°29' W 124°37'1414.1
2014-Aug-03 22:33N 48°23' W 124°17'1413.3
2014-Aug-03 21:30N 48°18' W 123°58'8 7.0
2014-Aug-03 20:23N 48°17' W 123°46'5 6.3
2014-Aug-03 19:32N 48°16' W 123°39'6 6.2
2014-Aug-03 18:33N 48°14' W 123°30'6 5.6
2014-Aug-03 17:33N 48°11' W 123°24'55 9.1
2014-Aug-03 11:32N 47°36' W 122°21'0 0.0
2014-Aug-03 10:29N 47°36' W 122°21'0 0.0
2014-Aug-03 09:32N 47°36' W 122°21'0 0.0
2014-Aug-03 08:31N 47°36' W 122°21'0 0.0
2014-Aug-03 07:28N 47°36' W 122°21'0 0.0
2014-Aug-03 06:33N 47°36' W 122°21'0 0.0
2014-Aug-03 05:30N 47°36' W 122°20'0 0.0
2014-Aug-03 04:32N 47°36' W 122°21'0 0.0
2014-Aug-03 03:32N 47°36' W 122°21'0 0.0
2014-Aug-03 02:29N 47°36' W 122°21'0 0.0
2014-Aug-03 01:33N 47°36' W 122°21'0 0.2
2014-Aug-03 00:33N 47°36' W 122°21'10 9.6
2014-Aug-02 23:33N 47°44' W 122°27'1919.1
2014-Aug-02 22:33N 48°02' W 122°38'1817.7
2014-Aug-02 21:33N 48°12' W 123°00'1616.4
2014-Aug-02 20:33N 48°10' W 123°25'1616.3
2014-Aug-02 19:33N 48°13' W 123°49'1414.4
2014-Aug-02 18:34N 48°18' W 124°09'1515.5
2014-Aug-02 17:34N 48°25' W 124°30'1716.6
2014-Aug-02 16:34N 48°28' W 124°55'1716.7
2014-Aug-02 15:33N 48°34' W 125°19'1514.7
2014-Aug-02 14:33N 48°43' W 125°35'1918.5
2014-Aug-02 13:33N 48°55' W 125°57'1818.6
2014-Aug-02 12:33N 49°07' W 126°19'35618.7
2014-Aug-01 17:33N 54°16' W 131°02'1312.6
2014-Aug-01 16:33N 54°15' W 130°40'1111.3
2014-Aug-01 15:34N 54°15' W 130°21'3 2.6
2014-Aug-01 14:32N 54°17' W 130°22'0 0.0
2014-Aug-01 13:31N 54°17' W 130°22'0 0.0
2014-Aug-01 12:31N 54°17' W 130°22'0 0.0
2014-Aug-01 11:33N 54°17' W 130°22'0 0.0
2014-Aug-01 10:33N 54°17' W 130°22'0 0.0
2014-Aug-01 09:33N 54°17' W 130°22'0 0.0
2014-Aug-01 08:32N 54°17' W 130°22'0 0.0
2014-Aug-01 07:32N 54°17' W 130°22'0 0.0
2014-Aug-01 06:31N 54°17' W 130°22'0 0.0
2014-Aug-01 05:31N 54°17' W 130°22'0 0.0
2014-Aug-01 04:33N 54°17' W 130°22'0 0.0
2014-Aug-01 03:33N 54°17' W 130°22'  

Dump ship's entire track history